North Elizabeth, New Jersey
Current Conditions -  °F | °C
As of 11:51 PM on Wednesday 22 Oct 2014 (Local Time) from KEWR Reporting Station
Light Rain Light Rain  
Wind Chill: 51°   Ceiling: 2700
Heat Index: 51°   Visibility: 6mi
Dew Point: 48°   Wind: 20mph
Humidity: 89%   Direction: 350°N
Pressure: 29.74"   Gusts: 30mph
Location:  40.6752°N, 74.2247°W
Report Text: KEWR 230351Z 35017G26KT 6SM -RA BR FEW016 BKN027 OVC046 11/09 A2974 RMK AO2 PK WND 35030/0308 SLP069 P0014 T01060089 $
Loading
Personal Weather Stations






























Interactive Weather Map
Tropical Storm Tracking
New forecast layout! Learn more

10-Day Weather Forecast

Advertisements
Track Severe Weather on mobile